Time;durP1;ratioP1;P1;durP2;ratioP2;P2;SDS_P1;SDS_P2;PMS_P1;PMS_P2;Temp;Humidity;BMP_temperature;BMP_pressure;BME280_temperature;BME280_humidity;BME280_pressure;Samples;Min_cycle;Max_cycle;Signal;HPM_P1;HPM_P2
2021/06/08 00:02:15;;;;;;;1.27;1.17;;;23.00;55.80;;;;;;5016027;28;20041;-61
2021/06/08 00:04:40;;;;;;;1.27;1.17;;;23.10;79.90;;;;;;5015565;28;20122;-61
2021/06/08 00:07:06;;;;;;;1.35;1.05;;;23.80;56.20;;;;;;5015682;28;20029;-61
2021/06/08 00:09:32;;;;;;;1.30;1.20;;;23.30;56.00;;;;;;5015853;28;20036;-61
2021/06/08 00:11:57;;;;;;;1.13;1.00;;;23.30;56.00;;;;;;5015585;28;20018;-61
2021/06/08 00:14:23;;;;;;;1.75;1.13;;;23.40;56.10;;;;;;5015804;28;20026;-61
2021/06/08 00:16:48;;;;;;;1.15;1.08;;;23.40;56.70;;;;;;5015774;28;20109;-60
2021/06/08 00:19:14;;;;;;;2.17;1.30;;;23.30;56.10;;;;;;5015438;28;20021;-61
2021/06/08 00:21:40;;;;;;;2.15;1.40;;;23.10;56.00;;;;;;5015416;28;20029;-61
2021/06/08 00:24:05;;;;;;;0.95;0.95;;;23.00;56.00;;;;;;5014425;28;20018;-61
2021/06/08 00:26:33;;;;;;;1.30;1.20;;;23.30;56.10;;;;;;5015574;28;20026;-61
2021/06/08 00:28:58;;;;;;;1.70;1.60;;;23.30;56.10;;;;;;5014491;28;20037;-61
2021/06/08 00:31:24;;;;;;;1.63;1.52;;;23.00;56.00;;;;;;5014966;28;20025;-60
2021/06/08 00:33:50;;;;;;;1.38;1.27;;;23.60;56.40;;;;;;5015477;28;20045;-61
2021/06/08 00:36:16;;;;;;;1.55;1.40;;;23.20;56.20;;;;;;5014208;28;20064;-61
2021/06/08 00:38:42;;;;;;;1.25;1.17;;;23.20;56.20;;;;;;5015115;28;20041;-61
2021/06/08 00:41:08;;;;;;;1.70;1.40;;;23.40;56.30;;;;;;5015336;28;20028;-61
2021/06/08 00:43:35;;;;;;;1.30;1.20;;;22.90;56.10;;;;;;5014112;28;20062;-61
2021/06/08 00:46:01;;;;;;;1.63;1.48;;;23.30;56.30;;;;;;5015408;28;20092;-61
2021/06/08 00:48:27;;;;;;;1.50;1.40;;;23.20;56.30;;;;;;5015235;28;20409;-60
2021/06/08 00:50:53;;;;;;;1.08;1.08;;;23.30;57.10;;;;;;5015205;28;20034;-61
2021/06/08 00:53:19;;;;;;;2.22;1.63;;;23.00;56.20;;;;;;5015115;28;20045;-61
2021/06/08 00:55:45;;;;;;;2.60;1.95;;;23.10;56.30;;;;;;5014797;28;20072;-61
2021/06/08 00:58:11;;;;;;;2.63;1.92;;;23.30;56.40;;;;;;5014989;28;20025;-61
2021/06/08 01:00:36;;;;;;;1.50;1.40;;;23.10;56.30;;;;;;5014595;28;20096;-61
2021/06/08 01:03:03;;;;;;;1.60;1.50;;;23.10;56.30;;;;;;5014518;28;20033;-60
2021/06/08 01:05:29;;;;;;;3.05;1.40;;;23.10;56.40;;;;;;5014877;28;20018;-61
2021/06/08 01:07:55;;;;;;;2.22;1.60;;;23.20;56.40;;;;;;5014824;28;20096;-60
2021/06/08 01:10:21;;;;;;;2.25;2.05;;;23.10;56.40;;;;;;5014724;28;20030;-60
2021/06/08 01:12:47;;;;;;;1.80;1.70;;;23.30;56.50;;;;;;5014460;28;20539;-61
2021/06/08 01:15:12;;;;;;;1.75;1.65;;;23.10;56.40;;;;;;4996909;28;20113;-60
2021/06/08 01:17:39;;;;;;;1.90;1.80;;;23.10;56.40;;;;;;5014775;28;20049;-61
2021/06/08 01:20:08;;;;;;;2.08;1.88;;;22.90;56.30;;;;;;5014678;28;20396;-60
2021/06/08 01:22:34;;;;;;;1.50;1.40;;;23.10;56.40;;;;;;5014659;28;20375;-60
2021/06/08 01:25:00;;;;;;;2.30;2.10;;;23.10;56.80;;;;;;5014321;28;20485;-60
2021/06/08 01:27:27;;;;;;;1.83;1.60;;;23.50;56.70;;;;;;5014493;28;20049;-60
2021/06/08 01:29:54;;;;;;;1.67;1.58;;;22.80;56.30;;;;;;5014155;28;20030;-61
2021/06/08 01:32:24;;;;;;;1.70;1.60;;;23.00;56.50;;;;;;5029417;28;20021;-60
2021/06/08 01:34:53;;;;;;;2.13;1.67;;;23.40;56.70;;;;;;5014425;28;20026;-60
2021/06/08 01:37:18;;;;;;;1.80;1.70;;;23.00;56.50;;;;;;5014054;28;20022;-61
2021/06/08 01:39:46;;;;;;;2.10;1.90;;;23.00;56.50;;;;;;5014036;28;20084;-60
2021/06/08 01:42:13;;;;;;;1.85;1.75;;;23.30;56.70;;;;;;5013625;28;20053;-61
2021/06/08 01:44:42;;;;;;;2.08;1.98;;;23.00;56.50;;;;;;5014177;28;20071;-60
2021/06/08 01:47:08;;;;;;;1.70;1.60;;;23.20;56.70;;;;;;5012616;28;20415;-61
2021/06/08 01:49:34;;;;;;;2.30;2.10;;;23.00;56.50;;;;;;5013960;28;20034;-60
2021/06/08 01:52:09;;;;;;;1.90;1.80;;;23.10;56.60;;;;;;5013823;28;20428;-61
2021/06/08 01:54:55;;;;;;;2.20;2.05;;;23.00;56.60;;;;;;4996196;28;20477;-60
2021/06/08 01:57:37;;;;;;;1.90;1.80;;;23.00;56.50;;;;;;5013857;28;20026;-61
2021/06/08 02:00:08;;;;;;;2.17;2.00;;;23.10;56.60;;;;;;5013992;28;20026;-60
2021/06/08 02:03:10;;;;;;;2.05;1.95;;;23.00;56.50;;;;;;4991153;28;20580;-61
2021/06/08 02:05:38;;;;;;;1.92;1.80;;;23.00;56.50;;;;;;5013645;28;20064;-60
2021/06/08 02:08:23;;;;;;;2.10;1.90;;;23.00;56.50;;;;;;5013682;28;20022;-60
2021/06/08 02:11:00;;;;;;;2.38;2.17;;;23.00;56.50;;;;;;5013609;28;20037;-60
2021/06/08 02:13:46;;;;;;;2.22;2.03;;;22.90;56.50;;;;;;5013786;28;20026;-61
2021/06/08 02:16:19;;;;;;;1.80;1.70;;;23.00;80.70;;;;;;5012289;28;20397;-60
2021/06/08 02:18:46;;;;;;;2.30;2.20;;;23.00;56.50;;;;;;5013430;28;20064;-60
2021/06/08 02:21:15;;;;;;;3.65;2.58;;;23.30;56.70;;;;;;5013654;28;20428;-60
2021/06/08 02:23:45;;;;;;;2.28;2.08;;;22.70;56.40;;;;;;5013640;28;20034;-60
2021/06/08 02:26:11;;;;;;;;;;;22.90;56.50;;;;;;5014130;28;20049;-61
2021/06/08 02:28:39;;;;;;;1.92;1.83;;;23.10;56.70;;;;;;5013520;28;19925;-61
2021/06/08 02:31:07;;;;;;;2.25;2.10;;;22.90;56.50;;;;;;5013495;28;20033;-61
2021/06/08 02:33:36;;;;;;;1.85;1.70;;;23.50;56.80;;;;;;5013490;28;20041;-61
2021/06/08 02:36:04;;;;;;;3.30;1.95;;;22.90;56.50;;;;;;5013331;28;20018;-60
2021/06/08 02:38:35;;;;;;;3.75;2.00;;;22.90;56.60;;;;;;5013247;28;20053;-61
2021/06/08 02:41:02;;;;;;;1.95;1.80;;;22.90;56.50;;;;;;5013250;28;20028;-61
2021/06/08 02:43:29;;;;;;;2.05;1.90;;;22.70;56.50;;;;;;5013139;28;20124;-62
2021/06/08 02:45:56;;;;;;;2.03;1.92;;;22.60;56.40;;;;;;5013078;28;20069;-60
2021/06/08 02:48:23;;;;;;;3.47;2.20;;;22.90;56.60;;;;;;5013272;28;20295;-61
2021/06/08 02:50:49;;;;;;;2.35;2.15;;;23.30;56.80;;;;;;5013220;28;20080;-61
2021/06/08 02:53:17;;;;;;;2.40;2.20;;;22.70;56.50;;;;;;5012489;28;20420;-61
2021/06/08 02:55:43;;;;;;;2.50;2.30;;;23.10;56.70;;;;;;5013253;28;20072;-61
2021/06/08 02:58:11;;;;;;;2.63;2.22;;;22.80;56.50;;;;;;5013226;28;20053;-61
2021/06/08 03:00:37;;;;;;;2.15;2.00;;;22.90;56.60;;;;;;5012843;28;20029;-60
2021/06/08 03:03:06;;;;;;;2.20;2.00;;;22.80;56.60;;;;;;5012807;28;20026;-60
2021/06/08 03:05:45;;;;;;;2.55;1.88;;;22.80;56.60;;;;;;5013003;28;20053;-60
2021/06/08 03:08:24;;;;;;;1.90;1.80;;;22.80;56.60;;;;;;5013052;28;20056;-60
2021/06/08 03:10:51;;;;;;;2.15;2.05;;;22.80;56.50;;;;;;5013048;28;20054;-61
2021/06/08 03:13:18;;;;;;;2.08;1.95;;;22.80;56.60;;;;;;5012869;28;20022;-61
2021/06/08 03:15:49;;;;;;;2.30;2.10;;;22.80;56.60;;;;;;5012928;28;20026;-60
2021/06/08 03:18:17;;;;;;;1.88;1.77;;;22.80;56.60;;;;;;5012839;28;20021;-61
2021/06/08 03:20:55;;;;;;;2.25;2.05;;;22.80;56.60;;;;;;5013044;28;20061;-60
2021/06/08 03:23:23;;;;;;;2.10;2.00;;;22.90;56.60;;;;;;5013082;28;20061;-61
2021/06/08 03:25:51;;;;;;;2.17;1.95;;;22.50;56.50;;;;;;5011765;28;20041;-61
2021/06/08 03:28:26;;;;;;;2.55;2.35;;;22.70;56.60;;;;;;5012500;28;20025;-60
2021/06/08 03:30:52;;;;;;;2.42;2.22;;;22.90;56.60;;;;;;5012901;28;20025;-61
2021/06/08 03:33:20;;;;;;;2.42;2.22;;;22.40;56.40;;;;;;5012739;28;20024;-61
2021/06/08 03:35:47;;;;;;;2.70;2.00;;;22.80;56.60;;;;;;5012769;28;20053;-61
2021/06/08 03:38:13;;;;;;;1.88;1.77;;;22.50;56.40;;;;;;5012477;28;20033;-60
2021/06/08 03:40:40;;;;;;;2.30;2.10;;;22.80;56.60;;;;;;5012407;28;20116;-61
2021/06/08 03:43:07;;;;;;;2.20;2.00;;;22.90;56.60;;;;;;5012665;28;20036;-61
2021/06/08 03:45:33;;;;;;;3.25;1.70;;;22.60;56.50;;;;;;5012593;28;20036;-61
2021/06/08 03:47:58;;;;;;;2.40;2.20;;;23.00;56.70;;;;;;5012654;28;20022;-60
2021/06/08 03:50:25;;;;;;;2.22;2.03;;;22.40;56.40;;;;;;5010985;28;20084;-60
2021/06/08 03:52:51;;;;;;;2.03;1.80;;;22.50;56.40;;;;;;5012318;28;20089;-60
2021/06/08 03:55:22;;;;;;;1.88;1.77;;;22.70;56.50;;;;;;5012362;28;20029;-60
2021/06/08 03:57:53;;;;;;;2.03;1.92;;;22.70;80.80;;;;;;5012574;28;20022;-60
2021/06/08 04:00:24;;;;;;;3.70;2.35;;;23.10;56.70;;;;;;5012247;28;20053;-60
2021/06/08 04:02:50;;;;;;;2.42;2.20;;;22.70;56.50;;;;;;5012325;28;20022;-61
2021/06/08 04:05:17;;;;;;;3.63;2.33;;;22.40;56.40;;;;;;5014871;28;20041;-60
2021/06/08 04:07:44;;;;;;;2.10;2.00;;;22.40;56.40;;;;;;5015941;28;20029;-60
2021/06/08 04:10:15;;;;;;;2.08;1.98;;;22.70;56.50;;;;;;5015635;28;20034;-60
2021/06/08 04:12:41;;;;;;;2.05;1.95;;;22.60;56.50;;;;;;5015596;28;20026;-61
2021/06/08 04:15:08;;;;;;;1.77;1.67;;;22.70;56.50;;;;;;5014351;28;20037;-60
2021/06/08 04:17:34;;;;;;;2.00;1.90;;;22.60;56.50;;;;;;5015535;28;20018;-61
2021/06/08 04:20:00;;;;;;;2.40;2.20;;;22.70;56.50;;;;;;5015788;28;20465;-60
2021/06/08 04:22:27;;;;;;;2.10;1.95;;;23.00;56.70;;;;;;5015417;28;20022;-61
2021/06/08 04:24:53;;;;;;;3.70;2.20;;;22.60;56.40;;;;;;5015630;28;20389;-61
2021/06/08 04:27:26;;;;;;;1.92;1.80;;;23.30;56.90;;;;;;5015610;28;20022;-60
2021/06/08 04:29:53;;;;;;;2.42;2.22;;;22.50;56.40;;;;;;5015502;28;20060;-61
2021/06/08 04:32:19;;;;;;;2.05;1.90;;;23.00;56.70;;;;;;5015203;28;20109;-60
2021/06/08 04:34:50;;;;;;;2.17;2.08;;;22.70;56.50;;;;;;5015407;28;20041;-60
2021/06/08 04:37:16;;;;;;;;;;;22.70;56.50;;;;;;5015793;28;20028;-61
2021/06/08 04:39:41;;;;;;;2.08;1.95;;;23.10;56.80;;;;;;5015325;28;19909;-61
2021/06/08 04:42:10;;;;;;;2.17;2.08;;;22.60;56.60;;;;;;5015325;28;20030;-61
2021/06/08 04:44:35;;;;;;;2.65;1.95;;;22.60;56.50;;;;;;5014990;28;20112;-60
2021/06/08 04:47:01;;;;;;;1.73;1.58;;;22.60;56.50;;;;;;5013615;28;20073;-61
2021/06/08 04:49:26;;;;;;;2.50;2.30;;;22.60;56.50;;;;;;5015106;28;20060;-61
2021/06/08 04:51:52;;;;;;;2.17;2.08;;;22.60;56.50;;;;;;5014860;28;20077;-61
2021/06/08 04:54:25;;;;;;;1.88;1.77;;;22.50;56.50;;;;;;5015105;28;20104;-61
2021/06/08 04:56:51;;;;;;;2.17;1.90;;;22.50;56.50;;;;;;5014766;28;20064;-61
2021/06/08 04:59:27;;;;;;;2.22;2.10;;;22.60;56.60;;;;;;5014704;28;20030;-61
2021/06/08 05:01:54;;;;;;;2.95;2.35;;;22.60;56.70;;;;;;5014707;28;20427;-61
2021/06/08 05:04:22;;;;;;;2.53;2.33;;;22.70;56.70;;;;;;5014521;28;20050;-61
2021/06/08 05:06:55;;;;;;;2.20;2.00;;;22.60;56.70;;;;;;5014570;28;20493;-61
2021/06/08 05:09:31;;;;;;;1.92;1.83;;;22.60;56.70;;;;;;5014800;28;20091;-61
2021/06/08 05:11:59;;;;;;;1.95;1.77;;;23.00;57.00;;;;;;5014615;28;20049;-61
2021/06/08 05:14:27;;;;;;;2.08;1.85;;;22.80;56.80;;;;;;5014507;28;20025;-61
2021/06/08 05:16:53;;;;;;;1.58;1.48;;;22.70;56.80;;;;;;5013728;28;20071;-62
2021/06/08 05:19:19;;;;;;;1.88;1.73;;;22.70;81.00;;;;;;5014312;28;20041;-62
2021/06/08 05:21:46;;;;;;;1.90;1.80;;;22.80;56.90;;;;;;5014339;28;20464;-61
2021/06/08 05:24:13;;;;;;;2.33;2.13;;;22.90;57.10;;;;;;5014351;28;20025;-61
2021/06/08 05:26:43;;;;;;;2.95;1.90;;;22.40;56.80;;;;;;5013011;28;20026;-61
2021/06/08 05:29:10;;;;;;;2.35;2.15;;;22.60;56.50;;;;;;5014442;28;20432;-61
2021/06/08 05:31:36;;;;;;;2.47;2.25;;;22.60;56.70;;;;;;5014099;28;20028;-62
2021/06/08 05:34:02;;;;;;;1.60;1.50;;;22.60;57.00;;;;;;5014245;28;20034;-61
2021/06/08 05:36:36;;;;;;;2.28;2.08;;;22.60;57.10;;;;;;5014339;28;20014;-62
2021/06/08 05:39:04;;;;;;;1.83;1.70;;;22.40;56.90;;;;;;5014291;28;20034;-62
2021/06/08 05:41:29;;;;;;;1.85;1.50;;;23.20;57.40;;;;;;5014218;28;20022;-62
2021/06/08 05:43:55;;;;;;;2.10;1.90;;;23.20;57.40;;;;;;5013861;28;20034;-62
2021/06/08 05:46:22;;;;;;;1.60;1.50;;;23.10;57.40;;;;;;5013920;28;20041;-61
2021/06/08 05:48:48;;;;;;;2.97;2.30;;;23.10;57.40;;;;;;5014004;28;20452;-61
2021/06/08 05:51:13;;;;;;;1.90;1.77;;;22.50;57.10;;;;;;5013742;28;20054;-61
2021/06/08 05:53:42;;;;;;;2.15;1.95;;;22.60;57.20;;;;;;5013740;28;20060;-62
2021/06/08 05:56:09;;;;;;;2.58;1.75;;;23.10;57.50;;;;;;5013979;28;20014;-61
2021/06/08 05:58:36;;;;;;;1.58;1.40;;;22.60;81.10;;;;;;5012681;28;20026;-60
2021/06/08 06:01:03;;;;;;;2.45;1.63;;;22.50;56.80;;;;;;5013617;28;20041;-61
2021/06/08 06:03:30;;;;;;;3.10;1.88;;;22.80;56.90;;;;;;5013575;28;20077;-60
2021/06/08 06:05:56;;;;;;;2.92;1.70;;;23.00;57.00;;;;;;5013500;28;20481;-61
2021/06/08 06:08:25;;;;;;;2.17;1.90;;;22.90;57.00;;;;;;5013340;28;20119;-61
2021/06/08 06:10:51;;;;;;;3.85;1.90;;;22.60;56.80;;;;;;5013514;28;20128;-60
2021/06/08 06:13:21;;;;;;;4.18;2.05;;;22.40;56.90;;;;;;5013623;28;20056;-60
2021/06/08 06:15:48;;;;;;;1.98;1.70;;;22.60;57.10;;;;;;5013755;28;20369;-60
2021/06/08 06:18:14;;;;;;;3.75;1.88;;;22.60;57.40;;;;;;5013601;28;20022;-59
2021/06/08 06:20:41;;;;;;;4.03;1.55;;;23.10;57.70;;;;;;5013618;28;20499;-59
2021/06/08 06:23:08;;;;;;;2.85;1.55;;;22.40;57.00;;;;;;5013612;28;20032;-58
2021/06/08 06:25:33;;;;;;;1.85;1.50;;;23.20;57.40;;;;;;5013263;28;20080;-59
2021/06/08 06:27:59;;;;;;;2.15;1.55;;;22.90;57.20;;;;;;5013155;28;20030;-60
2021/06/08 06:30:25;;;;;;;4.32;1.88;;;22.90;57.30;;;;;;5013067;28;20481;-60
2021/06/08 06:32:51;;;;;;;1.70;1.60;;;22.80;57.30;;;;;;5013231;28;20492;-60
2021/06/08 06:35:17;;;;;;;1.77;1.67;;;22.50;57.20;;;;;;5011955;28;20028;-60
2021/06/08 06:37:45;;;;;;;1.70;1.60;;;23.10;57.80;;;;;;5013723;28;20028;-60
2021/06/08 06:40:15;;;;;;;5.75;1.85;;;22.60;57.40;;;;;;5013019;28;20014;-59
2021/06/08 06:42:48;;;;;;;3.92;1.90;;;22.60;58.00;;;;;;5013411;28;20051;-59
2021/06/08 06:45:21;;;;;;;3.47;1.60;;;23.10;57.70;;;;;;5013129;28;20029;-59
2021/06/08 06:47:48;;;;;;;2.55;1.70;;;22.50;81.50;;;;;;5013003;28;20034;-59
2021/06/08 06:50:15;;;;;;;4.55;1.88;;;22.40;57.50;;;;;;5012895;28;20030;-59
2021/06/08 06:52:55;;;;;;;1.90;1.70;;;23.20;57.60;;;;;;5013198;28;20033;-59
2021/06/08 06:55:21;;;;;;;4.80;1.77;;;22.30;57.10;;;;;;5028200;28;20022;-59
2021/06/08 06:57:47;;;;;;;2.40;1.55;;;22.70;57.30;;;;;;5011665;28;20018;-59
2021/06/08 07:00:13;;;;;;;3.50;1.60;;;22.90;57.60;;;;;;5012848;28;20030;-58
2021/06/08 07:02:39;;;;;;;4.07;2.00;;;22.60;57.40;;;;;;5012952;28;20097;-59
2021/06/08 07:05:06;;;;;;;3.80;1.90;;;23.00;57.40;;;;;;5012456;28;20041;-60
2021/06/08 07:07:33;;;;;;;2.78;1.80;;;22.60;57.50;;;;;;5011208;28;20038;-59
2021/06/08 07:09:59;;;;;;;3.47;1.70;;;22.60;57.40;;;;;;5012601;28;20034;-59
2021/06/08 07:12:25;;;;;;;1.45;1.38;;;22.40;57.20;;;;;;5011820;28;20108;-57
2021/06/08 07:14:51;;;;;;;6.28;1.63;;;22.60;57.10;;;;;;5012708;28;20030;-59
2021/06/08 07:17:20;;;;;;;2.45;1.60;;;23.10;57.70;;;;;;5012590;28;20018;-59
2021/06/08 07:19:47;;;;;;;1.70;1.27;;;22.60;57.30;;;;;;5012747;28;20060;-60
2021/06/08 07:22:14;;;;;;;1.70;1.58;;;22.60;57.10;;;;;;5012651;28;20101;-59
2021/06/08 07:24:41;;;;;;;2.53;1.50;;;22.60;57.00;;;;;;5012870;28;20029;-59
2021/06/08 07:27:11;;;;;;;1.50;1.40;;;22.50;56.90;;;;;;5011376;28;20190;-59
2021/06/08 07:29:37;;;;;;;1.75;1.50;;;22.60;57.00;;;;;;5012535;28;20512;-59
2021/06/08 07:32:11;;;;;;;2.75;1.45;;;22.60;56.90;;;;;;5012796;28;20052;-59
2021/06/08 07:34:59;;;;;;;3.30;1.70;;;22.50;56.90;;;;;;5011579;28;20460;-60
2021/06/08 07:37:26;;;;;;;1.38;1.20;;;22.60;56.90;;;;;;5012852;28;20024;-60
2021/06/08 07:39:54;;;;;;;3.05;1.33;;;22.60;56.90;;;;;;5015100;28;20041;-61
2021/06/08 07:42:39;;;;;;;3.00;1.35;;;22.60;56.90;;;;;;5016607;28;20018;-61
2021/06/08 07:45:11;;;;;;;3.55;1.48;;;22.80;56.90;;;;;;5016447;28;20029;-61
2021/06/08 07:47:38;;;;;;;3.90;1.80;;;22.60;56.80;;;;;;5016142;28;20036;-61
2021/06/08 07:50:07;;;;;;;1.90;1.77;;;22.90;56.90;;;;;;5014872;28;20034;-61
2021/06/08 07:52:33;;;;;;;1.88;1.42;;;22.60;56.60;;;;;;5016161;28;20029;-61
2021/06/08 07:55:01;;;;;;;2.15;1.40;;;22.50;56.60;;;;;;5016093;28;20029;-61
2021/06/08 07:57:27;;;;;;;3.38;1.63;;;22.60;56.40;;;;;;5016017;28;20381;-61
2021/06/08 07:59:53;;;;;;;5.03;1.88;;;22.60;56.40;;;;;;5016193;28;20029;-60
2021/06/08 08:02:20;;;;;;;2.42;1.77;;;22.80;56.50;;;;;;5016084;28;20108;-61
2021/06/08 08:04:51;;;;;;;1.98;1.13;;;22.60;56.20;;;;;;5015777;28;20049;-61
2021/06/08 08:07:23;;;;;;;2.00;1.50;;;22.50;56.10;;;;;;5016167;28;20033;-61
2021/06/08 08:09:50;;;;;;;1.90;1.40;;;22.70;56.10;;;;;;5016100;28;20116;-61
2021/06/08 08:12:16;;;;;;;1.50;1.40;;;22.70;80.30;;;;;;5016043;28;20014;-61
2021/06/08 08:14:43;;;;;;;4.00;1.58;;;22.70;56.10;;;;;;5031022;28;20041;-61
2021/06/08 08:17:13;;;;;;;4.97;1.70;;;23.30;56.30;;;;;;5015676;28;20044;-60
2021/06/08 08:19:40;;;;;;;1.83;1.20;;;22.70;56.00;;;;;;5015631;28;20034;-61
2021/06/08 08:22:06;;;;;;;2.22;1.75;;;22.70;56.00;;;;;;5015888;28;20030;-61
2021/06/08 08:24:32;;;;;;;6.35;1.58;;;22.40;55.80;;;;;;5015572;28;20037;-60
2021/06/08 08:27:00;;;;;;;1.92;1.30;;;23.20;56.10;;;;;;5014294;28;20025;-61
2021/06/08 08:29:26;;;;;;;1.50;1.38;;;23.00;56.00;;;;;;5015703;28;20113;-61
2021/06/08 08:31:51;;;;;;;1.90;1.20;;;22.70;55.80;;;;;;5015499;28;20109;-61
2021/06/08 08:34:17;;;;;;;2.25;1.25;;;23.30;56.10;;;;;;5015499;28;20044;-61
2021/06/08 08:36:43;;;;;;;2.28;1.52;;;22.70;55.80;;;;;;5015622;28;20490;-60
2021/06/08 08:39:11;;;;;;;3.05;1.30;;;22.90;55.80;;;;;;5015676;28;20049;-60
2021/06/08 08:41:37;;;;;;;2.30;1.20;;;22.80;55.80;;;;;;5015456;28;20050;-60
2021/06/08 08:44:05;;;;;;;2.65;1.30;;;23.00;55.80;;;;;;5015332;28;20018;-60
2021/06/08 08:46:31;;;;;;;3.00;1.40;;;22.80;55.50;;;;;;5015371;28;20029;-58
2021/06/08 08:48:58;;;;;;;2.83;1.30;;;22.90;55.60;;;;;;5015544;28;20381;-59
2021/06/08 08:51:25;;;;;;;2.83;1.50;;;23.10;55.60;;;;;;5012651;28;20036;-59
2021/06/08 08:53:55;;;;;;;2.70;1.10;;;23.10;55.60;;;;;;5015270;28;20218;-60
2021/06/08 08:56:23;;;;;;;4.63;1.60;;;23.30;55.60;;;;;;5014913;28;20018;-60
2021/06/08 08:58:49;;;;;;;1.85;1.15;;;23.00;55.20;;;;;;5014696;28;20140;-59
2021/06/08 09:01:15;;;;;;;3.55;1.33;;;23.00;55.10;;;;;;5014757;28;20037;-60
2021/06/08 09:03:40;;;;;;;3.17;1.33;;;23.00;54.90;;;;;;5014821;28;20049;-60
2021/06/08 09:06:07;;;;;;;3.42;1.38;;;23.00;54.80;;;;;;5014706;28;20029;-60
2021/06/08 09:08:33;;;;;;;2.13;1.20;;;23.10;54.90;;;;;;5014901;28;20045;-60
2021/06/08 09:10:59;;;;;;;1.35;1.13;;;23.10;54.70;;;;;;5014708;28;20022;-60
2021/06/08 09:13:25;;;;;;;3.85;1.48;;;23.00;54.50;;;;;;5014812;28;20032;-61
2021/06/08 09:15:51;;;;;;;2.60;1.00;;;23.20;54.40;;;;;;5014835;28;20037;-60
2021/06/08 09:18:19;;;;;;;2.00;1.17;;;23.50;54.40;;;;;;5014712;28;20026;-60
2021/06/08 09:20:45;;;;;;;1.95;1.10;;;23.30;54.20;;;;;;5014738;28;20025;-60
2021/06/08 09:23:10;;;;;;;2.65;1.27;;;23.40;54.10;;;;;;5014483;28;20025;-60
2021/06/08 09:25:47;;;;;;;1.13;0.90;;;23.50;54.10;;;;;;5014436;28;20034;-60
2021/06/08 09:28:30;;;;;;;3.58;1.20;;;23.10;53.70;;;;;;5014677;28;20026;-60
2021/06/08 09:31:05;;;;;;;2.78;1.35;;;23.40;53.60;;;;;;5014383;28;20029;-60
2021/06/08 09:33:36;;;;;;;2.15;0.85;;;23.50;53.70;;;;;;5014504;28;20103;-59
2021/06/08 09:36:10;;;;;;;3.45;1.33;;;23.50;53.70;;;;;;5014517;28;20022;-58
2021/06/08 09:38:39;;;;;;;1.83;0.90;;;23.50;53.50;;;;;;5014110;28;20057;-59
2021/06/08 09:41:21;;;;;;;1.87;1.00;;;23.60;53.60;;;;;;5014359;28;20069;-59
2021/06/08 09:44:01;;;;;;;1.90;0.95;;;24.20;53.80;;;;;;5013988;28;20109;-59
2021/06/08 09:46:29;;;;;;;4.18;0.93;;;23.60;53.30;;;;;;5014338;28;20448;-59
2021/06/08 09:48:56;;;;;;;2.05;1.10;;;23.40;53.20;;;;;;5013731;28;20495;-59
2021/06/08 09:51:23;;;;;;;1.65;0.90;;;23.90;53.30;;;;;;5014094;28;20358;-59
2021/06/08 09:53:49;;;;;;;1.95;1.10;;;23.70;53.10;;;;;;5013801;28;20018;-59
2021/06/08 09:56:16;;;;;;;0.98;0.80;;;23.80;53.10;;;;;;5014013;28;20053;-59
2021/06/08 09:58:47;;;;;;;1.30;0.90;;;23.80;53.10;;;;;;5013961;28;20061;-59
2021/06/08 10:01:16;;;;;;;1.42;1.13;;;23.80;53.10;;;;;;5013590;28;20545;-59
2021/06/08 10:03:50;;;;;;;1.35;0.77;;;23.80;53.00;;;;;;5013562;28;20088;-59
2021/06/08 10:06:21;;;;;;;2.75;1.30;;;23.90;53.00;;;;;;5013911;28;20061;-59
2021/06/08 10:09:00;;;;;;;4.60;0.85;;;23.90;52.90;;;;;;5013885;28;20120;-59
2021/06/08 10:11:28;;;;;;;1.95;1.00;;;23.90;52.80;;;;;;5013564;28;20105;-59
2021/06/08 10:14:07;;;;;;;0.95;0.60;;;23.90;52.80;;;;;;5013284;28;20362;-59
2021/06/08 10:16:33;;;;;;;1.40;0.68;;;23.90;52.70;;;;;;5013233;28;20065;-59
2021/06/08 10:19:00;;;;;;;0.93;0.73;;;24.00;52.70;;;;;;5013507;28;20057;-59
2021/06/08 10:21:55;;;;;;;1.45;0.90;;;24.00;52.70;;;;;;5013233;28;20037;-59
2021/06/08 10:24:23;;;;;;;1.75;0.90;;;24.00;52.60;;;;;;5004466;28;20041;-59
2021/06/08 10:26:54;;;;;;;3.03;1.00;;;24.50;52.80;;;;;;5011918;28;20022;-59
2021/06/08 10:29:29;;;;;;;0.95;0.80;;;24.20;52.60;;;;;;5013191;28;20542;-59
2021/06/08 10:31:57;;;;;;;1.92;1.00;;;24.10;52.40;;;;;;5013732;28;20022;-59
2021/06/08 10:34:24;;;;;;;5.25;1.20;;;24.60;52.60;;;;;;5013355;28;20022;-59
2021/06/08 10:36:50;;;;;;;9.07;1.08;;;24.30;52.50;;;;;;5013111;28;20485;-59
2021/06/08 10:39:24;;;;;;;4.38;0.60;;;24.60;52.60;;;;;;5013409;28;20098;-59
2021/06/08 10:41:51;;;;;;;1.75;0.80;;;24.50;52.40;;;;;;5013151;28;20026;-59
2021/06/08 10:44:24;;;;;;;4.40;1.30;;;24.20;52.30;;;;;;5013235;28;20026;-59
2021/06/08 10:46:56;;;;;;;1.70;0.77;;;24.20;52.20;;;;;;5013102;28;20022;-59
2021/06/08 10:49:36;;;;;;;2.25;1.00;;;24.20;52.20;;;;;;5012877;28;20087;-59
2021/06/08 10:52:04;;;;;;;7.22;0.90;;;24.20;52.10;;;;;;5013334;28;20376;-59
2021/06/08 10:54:39;;;;;;;3.72;1.20;;;24.20;52.00;;;;;;5012925;28;20045;-59
2021/06/08 10:57:10;;;;;;;2.40;0.75;;;24.30;52.00;;;;;;5013168;28;20018;-60
2021/06/08 10:59:37;;;;;;;4.80;1.00;;;24.30;52.10;;;;;;5012910;28;20026;-60
2021/06/08 11:02:04;;;;;;;2.88;1.10;;;24.80;52.20;;;;;;5010744;28;20489;-59
2021/06/08 11:04:50;;;;;;;2.75;0.65;;;24.30;51.90;;;;;;5011551;28;20186;-59
2021/06/08 11:07:15;;;;;;;3.60;0.95;;;24.40;51.90;;;;;;5012818;28;20468;-60
2021/06/08 11:09:41;;;;;;;2.28;1.00;;;24.40;51.90;;;;;;5012654;28;20125;-60
2021/06/08 11:12:07;;;;;;;3.00;0.90;;;24.40;51.90;;;;;;5011490;28;20076;-60
2021/06/08 11:14:33;;;;;;;5.50;0.80;;;24.70;52.10;;;;;;5014682;28;20030;-60
2021/06/08 11:17:04;;;;;;;4.28;1.08;;;24.40;51.80;;;;;;5016861;28;20105;-60
2021/06/08 11:19:51;;;;;;;3.88;0.98;;;24.50;51.70;;;;;;5015577;28;20432;-60
2021/06/08 11:22:24;;;;;;;2.08;0.85;;;24.40;51.60;;;;;;5015610;28;20051;-60
2021/06/08 11:24:51;;;;;;;2.03;0.90;;;24.50;51.70;;;;;;5017022;28;20077;-61
2021/06/08 11:27:18;;;;;;;3.42;0.90;;;25.00;52.00;;;;;;5016721;28;20026;-62
2021/06/08 11:29:50;;;;;;;3.13;0.80;;;24.50;51.70;;;;;;5015230;28;20041;-60
2021/06/08 11:32:31;;;;;;;1.30;0.90;;;25.00;51.90;;;;;;5016593;28;20073;-60
2021/06/08 11:35:18;;;;;;;2.38;0.80;;;24.50;51.60;;;;;;5016770;28;20033;-60
2021/06/08 11:38:19;;;;;;;3.05;1.23;;;24.50;51.60;;;;;;5015159;28;20057;-59
2021/06/08 11:40:45;;;;;;;2.83;0.70;;;24.50;51.50;;;;;;5016703;28;20029;-60
2021/06/08 11:43:11;;;;;;;1.60;0.90;;;24.50;51.50;;;;;;5016601;28;20084;-60
2021/06/08 11:45:41;;;;;;;2.10;0.93;;;25.10;51.80;;;;;;5016586;28;20022;-60
2021/06/08 11:48:28;;;;;;;3.42;0.70;;;24.50;51.20;;;;;;5016303;28;20477;-60
2021/06/08 11:50:54;;;;;;;2.63;0.60;;;24.60;51.20;;;;;;5016495;28;20553;-61
2021/06/08 11:53:20;;;;;;;0.90;0.50;;;24.70;51.30;;;;;;5016197;28;20071;-60
2021/06/08 11:56:06;;;;;;;1.90;0.90;;;24.70;51.30;;;;;;5016436;28;20018;-60
2021/06/08 11:58:34;;;;;;;2.17;1.23;;;25.00;51.40;;;;;;5016247;28;20038;-60
2021/06/08 12:01:00;;;;;;;0.70;0.70;;;24.60;51.20;;;;;;5016617;28;20029;-60
2021/06/08 12:03:38;;;;;;;0.93;0.70;;;24.60;51.20;;;;;;5016105;28;20050;-60
2021/06/08 12:06:06;;;;;;;0.77;0.60;;;25.00;51.50;;;;;;5015904;28;20028;-60
2021/06/08 12:08:34;;;;;;;0.90;0.70;;;24.70;51.20;;;;;;5015812;28;20025;-60
2021/06/08 12:11:15;;;;;;;1.67;0.70;;;24.60;51.20;;;;;;5016166;28;20030;-60
2021/06/08 12:13:43;;;;;;;2.08;0.70;;;24.60;51.10;;;;;;5015814;28;20115;-60
2021/06/08 12:16:13;;;;;;;1.50;0.70;;;24.70;51.20;;;;;;5016066;28;20030;-60
2021/06/08 12:18:38;;;;;;;0.70;0.50;;;24.80;74.90;;;;;;5015992;28;20018;-60
2021/06/08 12:21:15;;;;;;;0.77;0.63;;;25.20;51.30;;;;;;5015681;28;20033;-60
2021/06/08 12:23:42;;;;;;;1.13;0.50;;;24.70;51.00;;;;;;5015670;28;20389;-60
2021/06/08 12:26:12;;;;;;;0.90;0.50;;;24.70;51.00;;;;;;5015640;28;20041;-60
2021/06/08 12:28:43;;;;;;;1.25;0.68;;;24.80;51.00;;;;;;5015463;28;20116;-60
2021/06/08 12:31:20;;;;;;;0.93;0.60;;;24.70;51.50;;;;;;5015397;28;20080;-60
2021/06/08 12:33:48;;;;;;;0.82;0.55;;;24.70;50.70;;;;;;5015432;28;20029;-60
2021/06/08 12:36:15;;;;;;;3.00;0.60;;;24.70;50.60;;;;;;5015314;28;20032;-60
2021/06/08 12:38:51;;;;;;;1.33;0.60;;;24.70;50.50;;;;;;5015552;28;20045;-60
2021/06/08 12:41:18;;;;;;;1.67;0.80;;;24.70;50.20;;;;;;5015482;28;20022;-61
2021/06/08 12:43:48;;;;;;;0.45;0.45;;;24.70;50.10;;;;;;5015497;28;20097;-61
2021/06/08 12:46:30;;;;;;;0.40;0.40;;;24.70;50.10;;;;;;5015459;28;20050;-60
2021/06/08 12:49:16;;;;;;;1.45;0.45;;;24.70;50.70;;;;;;5015044;28;20042;-60
2021/06/08 12:51:56;;;;;;;2.28;0.70;;;24.70;50.00;;;;;;5015095;28;20037;-60
2021/06/08 12:54:38;;;;;;;1.17;0.50;;;24.80;49.90;;;;;;5015146;28;20562;-61
2021/06/08 12:57:12;;;;;;;1.00;0.52;;;24.80;73.50;;;;;;5015320;28;20483;-60
2021/06/08 13:00:00;;;;;;;1.52;0.70;;;24.70;49.30;;;;;;5015008;28;20026;-60